Time;durP1;ratioP1;P1;durP2;ratioP2;P2;SDS_P1;SDS_P2;PMS_P1;PMS_P2;Temp;Humidity;BMP_temperature;BMP_pressure;BME280_temperature;BME280_humidity;BME280_pressure;Samples;Min_cycle;Max_cycle;Signal;HPM_P1;HPM_P2
2024/04/08 00:03:02;;;;;;;3.07;1.67;;;20.70;26.60;;;;;;11256254;26;20250;-71
2024/04/08 00:08:07;;;;;;;3.43;1.60;;;20.80;26.40;;;;;;11260155;26;20286;-71
2024/04/08 00:13:16;;;;;;;2.47;1.97;;;20.80;26.40;;;;;;11255641;26;20304;-71
2024/04/08 00:18:21;;;;;;;3.00;1.73;;;20.90;26.90;;;;;;11250718;26;20254;-71
2024/04/08 00:23:26;;;;;;;4.53;1.93;;;20.80;26.40;;;;;;11255035;26;20291;-72
2024/04/08 00:28:37;;;;;;;3.00;1.60;;;20.80;26.60;;;;;;11250647;26;20261;-72
2024/04/08 00:33:42;;;;;;;2.87;1.60;;;20.80;26.80;;;;;;11240232;26;20292;-72
2024/04/08 00:38:47;;;;;;;4.13;1.80;;;20.70;26.50;;;;;;11260359;26;21009;-72
2024/04/08 00:43:54;;;;;;;3.73;1.93;;;20.60;26.50;;;;;;11236978;26;20266;-71
2024/04/08 00:49:00;;;;;;;4.37;1.80;;;20.60;27.00;;;;;;11257339;26;20253;-71
2024/04/08 00:54:05;;;;;;;4.77;1.70;;;20.50;26.90;;;;;;11263844;26;20262;-71
2024/04/08 00:59:16;;;;;;;2.30;1.90;;;20.50;26.70;;;;;;11255861;26;20261;-71
2024/04/08 01:04:22;;;;;;;2.80;1.73;;;20.40;27.50;;;;;;11248151;26;20721;-72
2024/04/08 01:09:28;;;;;;;4.80;1.83;;;20.40;27.00;;;;;;11239987;26;20258;-71
2024/04/08 01:14:36;;;;;;;2.27;2.00;;;20.30;26.90;;;;;;11257838;26;20272;-71
2024/04/08 01:19:42;;;;;;;3.80;1.83;;;20.30;27.30;;;;;;11251081;26;21178;-71
2024/04/08 01:24:49;;;;;;;3.97;1.80;;;20.20;27.10;;;;;;11253262;26;20263;-72
2024/04/08 01:29:54;;;;;;;3.23;1.93;;;20.10;27.20;;;;;;11240408;26;20606;-71
2024/04/08 01:34:59;;;;;;;3.23;1.80;;;20.00;26.80;;;;;;11242726;26;20305;-72
2024/04/08 01:40:08;;;;;;;3.30;2.03;;;19.90;27.20;;;;;;11244688;26;20307;-72
2024/04/08 01:45:12;;;;;;;3.27;1.77;;;19.80;27.30;;;;;;11248052;26;20999;-71
2024/04/08 01:50:18;;;;;;;3.33;1.80;;;19.70;27.30;;;;;;11250925;26;20304;-71
2024/04/08 01:55:25;;;;;;;3.93;1.97;;;19.70;27.20;;;;;;11248562;26;20253;-71
2024/04/08 02:00:30;;;;;;;3.27;1.83;;;19.70;27.70;;;;;;11243692;26;20596;-72
2024/04/08 02:05:35;;;;;;;3.40;1.80;;;19.70;27.50;;;;;;11245985;26;20304;-71
2024/04/08 02:10:45;;;;;;;4.10;1.97;;;19.70;27.50;;;;;;11257824;26;20325;-71
2024/04/08 02:15:50;;;;;;;3.70;2.10;;;19.60;27.90;;;;;;11249194;26;20289;-72
2024/04/08 02:20:55;;;;;;;1.90;1.70;;;19.60;27.40;;;;;;11255885;26;20300;-72
2024/04/08 02:26:03;;;;;;;3.37;1.80;;;19.50;27.50;;;;;;11266824;26;21118;-72
2024/04/08 02:31:08;;;;;;;2.73;1.83;;;19.40;28.00;;;;;;11264026;26;20765;-71
2024/04/08 02:36:14;;;;;;;4.33;2.00;;;19.30;27.50;;;;;;11247875;26;20297;-72
2024/04/08 02:41:22;;;;;;;4.00;1.90;;;19.30;27.70;;;;;;11248767;26;21376;-72
2024/04/08 02:46:27;;;;;;;3.00;1.77;;;19.10;28.20;;;;;;11249554;26;20300;-72
2024/04/08 02:51:32;;;;;;;2.20;2.00;;;19.10;27.70;;;;;;11257401;26;20261;-71
2024/04/08 02:56:40;;;;;;;2.83;1.90;;;19.00;27.90;;;;;;11265733;26;20262;-71
2024/04/08 03:01:45;;;;;;;2.67;1.80;;;18.90;28.30;;;;;;11261934;26;20647;-72
2024/04/08 03:06:50;;;;;;;2.20;1.70;;;18.80;28.10;;;;;;11260765;26;21019;-72
2024/04/08 03:11:57;;;;;;;2.53;1.80;;;18.80;28.20;;;;;;11259910;26;20253;-71
2024/04/08 03:17:03;;;;;;;3.93;1.80;;;18.70;29.30;;;;;;11246509;26;20365;-72
2024/04/08 03:22:08;;;;;;;3.40;1.90;;;18.70;28.50;;;;;;11246670;26;20291;-72
2024/04/08 03:27:15;;;;;;;3.17;1.77;;;18.60;28.40;;;;;;11250214;26;20790;-71
2024/04/08 03:32:20;;;;;;;3.57;1.83;;;18.50;29.00;;;;;;11251759;26;20391;-71
2024/04/08 03:37:27;;;;;;;2.87;2.00;;;18.40;28.50;;;;;;11251453;26;20257;-72
2024/04/08 03:42:35;;;;;;;2.87;2.27;;;18.30;28.50;;;;;;11254838;26;20656;-72
2024/04/08 03:47:40;;;;;;;2.80;1.93;;;18.20;29.00;;;;;;11254138;26;20925;-71
2024/04/08 03:52:48;;;;;;;1.70;1.50;;;18.10;28.50;;;;;;11247144;26;20265;-71
2024/04/08 03:57:56;;;;;;;4.03;1.83;;;18.00;28.90;;;;;;11247680;26;20305;-71
2024/04/08 04:03:01;;;;;;;3.13;2.07;;;17.80;29.20;;;;;;11249415;26;21115;-71
2024/04/08 04:08:07;;;;;;;2.57;2.23;;;17.70;29.00;;;;;;11252464;26;20253;-72
2024/04/08 04:13:14;;;;;;;2.50;1.80;;;17.50;29.20;;;;;;11253658;26;20310;-71
2024/04/08 04:18:20;;;;;;;3.30;2.10;;;17.40;29.80;;;;;;11243605;26;20258;-71
2024/04/08 04:23:25;;;;;;;2.83;2.00;;;17.20;29.40;;;;;;11251383;26;20265;-71
2024/04/08 04:28:32;;;;;;;2.27;2.07;;;17.10;29.50;;;;;;11251303;26;20253;-71
2024/04/08 04:33:37;;;;;;;3.60;2.40;;;17.10;30.10;;;;;;11258827;26;20266;-71
2024/04/08 04:38:42;;;;;;;2.90;1.70;;;17.10;29.80;;;;;;11261625;26;20303;-71
2024/04/08 04:43:50;;;;;;;5.07;2.30;;;17.10;29.80;;;;;;11237239;26;20341;-71
2024/04/08 04:48:55;;;;;;;2.93;2.13;;;17.00;30.60;;;;;;11241259;26;20299;-71
2024/04/08 04:54:01;;;;;;;10.43;5.97;;;17.00;30.00;;;;;;11242423;26;21115;-71
2024/04/08 04:59:09;;;;;;;7.70;5.33;;;17.00;29.90;;;;;;11246000;26;20265;-71
2024/04/08 05:04:14;;;;;;;7.03;4.43;;;17.00;30.50;;;;;;11261951;26;20261;-71
2024/04/08 05:09:19;;;;;;;6.00;4.00;;;17.00;30.10;;;;;;11256888;26;20307;-71
2024/04/08 05:14:27;;;;;;;5.17;3.37;;;17.00;30.20;;;;;;11277327;26;20258;-71
2024/04/08 05:19:32;;;;;;;4.63;3.27;;;16.90;31.00;;;;;;11256372;26;20250;-71
2024/04/08 05:24:37;;;;;;;5.20;2.60;;;16.90;30.60;;;;;;11235811;26;20347;-71
2024/04/08 05:29:45;;;;;;;3.73;2.30;;;17.00;30.60;;;;;;11257113;26;20265;-71
2024/04/08 05:34:50;;;;;;;4.37;2.60;;;17.00;31.80;;;;;;11252517;26;20257;-71
2024/04/08 05:39:55;;;;;;;3.83;2.70;;;17.10;30.90;;;;;;11251202;26;20257;-72
2024/04/08 05:45:02;;;;;;;3.30;2.47;;;17.20;30.70;;;;;;11251366;26;20304;-72
2024/04/08 05:50:08;;;;;;;4.70;3.00;;;17.20;31.30;;;;;;11264115;26;20257;-72
2024/04/08 05:55:13;;;;;;;2.83;2.30;;;17.30;31.00;;;;;;11266250;26;20265;-71
2024/04/08 06:00:20;;;;;;;3.30;2.47;;;17.30;30.90;;;;;;11274461;26;20261;-71
2024/04/08 06:05:27;;;;;;;4.17;2.70;;;17.30;31.70;;;;;;11262724;26;20258;-70
2024/04/08 06:10:36;;;;;;;5.80;3.10;;;17.30;31.30;;;;;;11265991;26;20261;-71
2024/04/08 06:15:43;;;;;;;5.20;3.33;;;17.30;31.40;;;;;;11246211;26;20291;-71
2024/04/08 06:20:55;;;;;;;6.63;3.57;;;17.30;32.80;;;;;;11259363;26;20295;-71
2024/04/08 06:26:01;;;;;;;4.27;3.37;;;17.20;33.30;;;;;;11254637;26;20316;-71
2024/04/08 06:31:09;;;;;;;5.57;2.93;;;17.20;32.40;;;;;;11246169;26;20266;-71
2024/04/08 06:36:15;;;;;;;5.00;3.17;;;17.20;33.00;;;;;;11255594;26;20257;-71
2024/04/08 06:41:21;;;;;;;4.63;2.70;;;17.30;32.70;;;;;;11242747;26;20304;-71
2024/04/08 06:46:29;;;;;;;5.60;2.90;;;17.40;32.50;;;;;;11261522;26;20303;-71
2024/04/08 06:51:34;;;;;;;6.50;2.80;;;17.50;33.00;;;;;;11263331;26;21163;-71
2024/04/08 06:56:41;;;;;;;3.90;2.53;;;17.60;32.50;;;;;;11250052;26;20300;-71
2024/04/08 07:01:49;;;;;;;5.30;2.87;;;17.70;32.70;;;;;;11262236;26;20269;-71
2024/04/08 07:06:54;;;;;;;6.87;2.73;;;17.80;32.70;;;;;;11250537;26;20763;-71
2024/04/08 07:12:02;;;;;;;6.57;2.80;;;17.90;32.30;;;;;;11259416;26;20262;-72
2024/04/08 07:17:10;;;;;;;5.10;3.00;;;17.90;32.60;;;;;;11258118;26;20295;-72
2024/04/08 07:22:15;;;;;;;4.70;2.70;;;18.00;33.10;;;;;;11261122;26;20292;-72
2024/04/08 07:27:20;;;;;;;8.07;2.70;;;18.10;32.90;;;;;;11241032;26;20265;-71
2024/04/08 07:32:29;;;;;;;4.13;2.73;;;18.20;32.70;;;;;;11263660;26;20631;-71
2024/04/08 07:37:34;;;;;;;3.20;2.37;;;18.40;33.10;;;;;;11245843;26;20305;-72
2024/04/08 07:42:39;;;;;;;6.27;2.67;;;18.50;32.40;;;;;;11242272;26;20293;-71
2024/04/08 07:47:47;;;;;;;4.57;2.47;;;18.70;32.20;;;;;;11267196;26;20258;-71
2024/04/08 07:52:52;;;;;;;5.20;2.90;;;19.00;32.30;;;;;;11239365;26;20344;-72
2024/04/08 07:57:57;;;;;;;6.67;2.60;;;19.20;32.40;;;;;;11255886;26;20304;-71
2024/04/08 08:03:05;;;;;;;5.53;2.23;;;19.50;32.10;;;;;;11249547;26;20299;-71
2024/04/08 08:08:10;;;;;;;5.13;2.60;;;19.70;32.30;;;;;;11256790;26;20317;-71
2024/04/08 08:13:15;;;;;;;4.83;2.33;;;19.90;31.90;;;;;;11244620;26;20261;-72
2024/04/08 08:18:23;;;;;;;5.13;2.60;;;20.10;31.70;;;;;;11244106;26;20260;-71
2024/04/08 08:23:28;;;;;;;4.30;2.50;;;20.30;31.70;;;;;;11249966;26;20267;-71
2024/04/08 08:28:34;;;;;;;6.53;2.60;;;20.40;31.30;;;;;;11254115;26;20254;-71
2024/04/08 08:33:41;;;;;;;5.57;2.67;;;20.50;31.30;;;;;;11246343;26;20286;-72
2024/04/08 08:38:46;;;;;;;5.70;2.20;;;20.80;31.30;;;;;;11245645;26;20259;-71
2024/04/08 08:43:54;;;;;;;6.33;2.40;;;20.90;31.20;;;;;;11229748;26;20292;-72
2024/04/08 08:49:03;;;;;;;5.93;2.53;;;21.00;30.90;;;;;;11246101;26;20265;-72
2024/04/08 08:54:10;;;;;;;6.73;2.20;;;21.30;31.00;;;;;;11249155;26;20261;-71
2024/04/08 08:59:17;;;;;;;6.10;2.57;;;21.50;31.00;;;;;;11250741;26;20789;-71
2024/04/08 09:04:26;;;;;;;3.83;2.23;;;21.70;31.00;;;;;;11253874;26;20585;-71
2024/04/08 09:09:31;;;;;;;8.10;2.77;;;21.90;31.30;;;;;;11242045;26;20252;-71
2024/04/08 09:14:36;;;;;;;5.13;2.60;;;22.10;31.20;;;;;;11247320;26;20254;-71
2024/04/08 09:19:44;;;;;;;4.03;2.27;;;22.30;31.30;;;;;;11248210;26;20266;-71
2024/04/08 09:24:49;;;;;;;4.60;2.17;;;22.50;31.00;;;;;;11218937;26;20307;-72
2024/04/08 09:29:54;;;;;;;4.57;2.13;;;22.80;30.70;;;;;;11240278;26;20287;-72
2024/04/08 09:35:03;;;;;;;6.03;2.17;;;23.10;30.60;;;;;;11225988;26;20300;-71
2024/04/08 09:40:10;;;;;;;5.03;2.20;;;23.30;30.40;;;;;;11209436;26;20319;-71
2024/04/08 09:45:16;;;;;;;4.77;2.37;;;23.60;30.50;;;;;;11204178;26;20963;-71
2024/04/08 09:50:25;;;;;;;5.57;2.00;;;23.90;30.30;;;;;;11214543;26;21033;-71
2024/04/08 09:55:31;;;;;;;4.07;2.23;;;24.20;30.00;;;;;;11215125;26;20262;-71
2024/04/08 10:00:38;;;;;;;7.73;2.23;;;24.40;30.10;;;;;;11217455;26;20257;-71
2024/04/08 10:05:46;;;;;;;7.23;2.43;;;24.70;29.40;;;;;;11230854;26;20258;-71
2024/04/08 10:10:51;;;;;;;8.17;2.90;;;24.90;29.10;;;;;;11220932;26;20884;-72
2024/04/08 10:16:08;;;;;;;8.20;2.97;;;25.20;29.10;;;;;;11209641;26;20299;-72
2024/04/08 10:21:16;;;;;;;6.00;2.70;;;25.40;28.90;;;;;;11216207;26;20257;-72
2024/04/08 10:26:26;;;;;;;4.50;2.70;;;25.60;29.00;;;;;;11212317;26;20294;-71
2024/04/08 10:31:31;;;;;;;7.50;2.67;;;25.80;26.90;;;;;;11224493;26;20296;-72
2024/04/08 10:36:39;;;;;;;9.40;3.00;;;26.00;27.70;;;;;;11225801;26;20292;-71
2024/04/08 10:41:44;;;;;;;5.70;2.83;;;26.20;26.90;;;;;;11224318;26;20262;-72
2024/04/08 10:46:49;;;;;;;5.47;2.20;;;26.40;27.40;;;;;;11219228;26;20269;-72
2024/04/08 10:51:57;;;;;;;4.20;2.70;;;26.60;27.00;;;;;;11221905;26;20258;-72
2024/04/08 10:57:03;;;;;;;5.53;2.70;;;26.70;25.60;;;;;;11248981;26;20261;-72
2024/04/08 11:02:15;;;;;;;6.87;2.77;;;26.80;26.50;;;;;;11235675;26;20246;-72
2024/04/08 11:07:23;;;;;;;5.73;2.53;;;27.00;25.20;;;;;;11232395;26;20301;-71
2024/04/08 11:12:29;;;;;;;7.10;2.47;;;27.10;24.90;;;;;;11232891;26;20311;-72
2024/04/08 11:17:35;;;;;;;7.13;2.27;;;27.30;24.90;;;;;;11219992;26;20282;-72
2024/04/08 11:22:43;;;;;;;5.80;2.47;;;27.40;25.10;;;;;;11232623;26;20803;-72
2024/04/08 11:27:49;;;;;;;6.93;2.57;;;27.50;24.00;;;;;;11225313;26;20266;-72
2024/04/08 11:32:54;;;;;;;6.40;2.50;;;27.70;24.50;;;;;;11224928;26;20324;-72
2024/04/08 11:38:02;;;;;;;8.87;2.37;;;27.90;24.90;;;;;;11225180;26;20906;-72
2024/04/08 11:43:25;;;;;;;6.83;2.70;;;28.00;24.00;;;;;;11208770;26;20250;-72
2024/04/08 11:48:30;;;;;;;6.90;2.50;;;28.20;24.40;;;;;;11224265;26;20261;-72
2024/04/08 11:53:40;;;;;;;10.87;2.60;;;28.30;23.80;;;;;;11215083;26;20674;-72
2024/04/08 11:58:45;;;;;;;11.43;2.57;;;28.40;22.90;;;;;;11220001;26;20315;-72
2024/04/08 12:03:50;;;;;;;8.67;2.57;;;28.50;24.00;;;;;;11215786;26;20733;-71
2024/04/08 12:08:58;;;;;;;9.43;2.73;;;28.60;24.20;;;;;;11206736;26;20261;-72
2024/04/08 12:14:03;;;;;;;8.03;2.90;;;28.80;23.10;;;;;;11225832;26;20301;-72
2024/04/08 12:19:09;;;;;;;8.70;2.97;;;28.90;23.10;;;;;;11217408;26;20291;-72
2024/04/08 12:24:16;;;;;;;10.33;3.10;;;29.00;23.10;;;;;;11226536;26;20381;-71
2024/04/08 12:29:21;;;;;;;7.10;2.67;;;29.00;22.10;;;;;;11243357;26;20257;-71
2024/04/08 12:34:26;;;;;;;13.73;3.07;;;29.20;23.00;;;;;;11227510;26;20303;-71
2024/04/08 12:39:34;;;;;;;9.33;2.70;;;29.30;22.50;;;;;;11227261;26;20316;-72
2024/04/08 12:44:39;;;;;;;11.10;3.50;;;29.30;22.00;;;;;;11230885;26;20994;-72
2024/04/08 12:49:47;;;;;;;11.73;2.83;;;29.40;22.10;;;;;;11213811;26;20265;-72
2024/04/08 12:54:55;;;;;;;12.10;3.37;;;29.50;22.00;;;;;;11215202;26;21959;-71
2024/04/08 13:00:00;;;;;;;15.93;3.93;;;29.60;20.90;;;;;;11218800;26;20291;-70
2024/04/08 13:05:06;;;;;;;10.27;3.27;;;29.70;20.90;;;;;;11221833;26;20254;-71
2024/04/08 13:10:13;;;;;;;7.80;3.30;;;29.70;20.90;;;;;;11220745;26;20301;-71
2024/04/08 13:15:18;;;;;;;9.47;3.17;;;29.80;20.50;;;;;;11205552;26;20262;-71
2024/04/08 13:20:24;;;;;;;11.20;3.27;;;29.90;21.20;;;;;;11213101;26;20309;-71
2024/04/08 13:25:31;;;;;;;10.73;3.03;;;30.00;21.10;;;;;;11207278;26;20262;-72
2024/04/08 13:30:41;;;;;;;11.10;3.50;;;30.10;20.50;;;;;;11216313;26;20254;-71
2024/04/08 13:35:47;;;;;;;13.50;3.57;;;30.20;21.10;;;;;;11225037;26;20307;-71
2024/04/08 13:40:54;;;;;;;17.43;4.30;;;30.20;20.50;;;;;;11217707;26;20375;-72
2024/04/08 13:46:01;;;;;;;10.53;3.13;;;30.20;19.40;;;;;;11217873;26;20265;-72
2024/04/08 13:51:08;;;;;;;13.33;3.40;;;30.20;19.80;;;;;;11227328;26;20866;-71
2024/04/08 13:56:16;;;;;;;15.20;3.80;;;30.30;19.90;;;;;;11228397;26;21788;-71
2024/04/08 14:01:21;;;;;;;13.30;3.50;;;30.40;18.50;;;;;;11229446;26;20307;-72
2024/04/08 14:06:26;;;;;;;15.43;3.60;;;30.40;19.10;;;;;;11234022;26;20646;-72
2024/04/08 14:11:34;;;;;;;16.93;3.80;;;30.40;19.30;;;;;;11229671;26;20952;-72
2024/04/08 14:16:39;;;;;;;12.47;3.80;;;30.50;18.80;;;;;;11229985;26;20288;-72
2024/04/08 14:21:44;;;;;;;18.03;4.33;;;30.50;19.50;;;;;;11230672;26;20348;-71
2024/04/08 14:26:51;;;;;;;12.43;3.37;;;30.60;19.20;;;;;;11238200;26;20268;-72
2024/04/08 14:31:56;;;;;;;14.13;4.13;;;30.60;18.70;;;;;;11220097;26;20300;-73
2024/04/08 14:37:02;;;;;;;14.83;3.80;;;30.60;19.40;;;;;;11222258;26;20398;-73
2024/04/08 14:42:10;;;;;;;10.30;3.60;;;30.70;19.50;;;;;;11226494;26;20253;-72
2024/04/08 14:47:15;;;;;;;8.87;3.53;;;30.60;18.90;;;;;;11224849;26;20370;-72
2024/04/08 14:52:20;;;;;;;9.13;3.60;;;30.60;19.80;;;;;;11219389;26;20261;-72
2024/04/08 14:57:43;;;;;;;13.50;3.53;;;30.70;19.30;;;;;;11222047;26;20285;-72
2024/04/08 15:02:49;;;;;;;9.80;3.60;;;30.70;18.60;;;;;;11220859;26;21021;-72
2024/04/08 15:07:55;;;;;;;15.33;3.73;;;30.70;18.90;;;;;;11215004;26;20290;-72
2024/04/08 15:13:02;;;;;;;12.20;3.83;;;30.70;19.20;;;;;;11227257;26;20265;-72
2024/04/08 15:18:10;;;;;;;10.20;3.47;;;30.70;18.80;;;;;;11225033;26;20313;-72
2024/04/08 15:23:15;;;;;;;10.00;3.47;;;30.70;18.90;;;;;;11228593;26;20687;-72
2024/04/08 15:28:23;;;;;;;13.10;4.00;;;30.70;19.20;;;;;;11226472;26;20257;-72
2024/04/08 15:33:29;;;;;;;10.43;3.33;;;30.70;18.90;;;;;;11238867;26;20899;-71
2024/04/08 15:38:34;;;;;;;13.43;3.93;;;30.80;19.60;;;;;;11230986;26;20291;-72
2024/04/08 15:43:42;;;;;;;11.77;3.70;;;30.80;19.20;;;;;;11231097;26;20724;-71
2024/04/08 15:48:47;;;;;;;11.33;3.97;;;30.80;19.40;;;;;;11231115;26;20258;-71
2024/04/08 15:53:52;;;;;;;14.27;3.63;;;30.80;19.30;;;;;;11241651;26;20299;-71
2024/04/08 15:58:59;;;;;;;9.03;3.07;;;30.80;19.30;;;;;;11228925;26;20258;-72
2024/04/08 16:04:04;;;;;;;10.60;3.23;;;30.80;19.60;;;;;;11228216;26;20685;-71
2024/04/08 16:09:10;;;;;;;9.00;3.20;;;30.80;20.00;;;;;;11237278;26;21081;-71
2024/04/08 16:14:18;;;;;;;12.03;3.50;;;30.80;20.10;;;;;;11234511;26;20296;-71
2024/04/08 16:19:23;;;;;;;12.20;3.43;;;30.70;19.50;;;;;;11255260;26;20323;-71
2024/04/08 16:24:28;;;;;;;9.33;3.33;;;30.60;19.70;;;;;;11252166;26;20304;-71
2024/04/08 16:29:36;;;;;;;13.57;3.17;;;30.50;19.70;;;;;;11248039;26;20261;-71
2024/04/08 16:34:43;;;;;;;7.07;2.80;;;30.50;19.40;;;;;;11233600;26;20262;-71
2024/04/08 16:39:48;;;;;;;9.53;3.17;;;30.40;19.80;;;;;;11242225;26;20340;-71
2024/04/08 16:44:56;;;;;;;7.57;2.77;;;30.40;20.00;;;;;;11230086;26;20303;-72
2024/04/08 16:50:00;;;;;;;9.27;3.20;;;30.30;20.30;;;;;;11234702;26;20300;-71
2024/04/08 16:55:06;;;;;;;10.27;3.30;;;30.30;20.40;;;;;;11227066;26;20258;-72
2024/04/08 17:00:15;;;;;;;8.30;3.10;;;30.20;20.20;;;;;;11229719;26;20935;-72
2024/04/08 17:05:20;;;;;;;11.93;3.10;;;30.10;20.50;;;;;;11230724;26;20750;-72
2024/04/08 17:10:25;;;;;;;9.80;4.10;;;30.00;20.60;;;;;;11217168;26;20262;-72
2024/04/08 17:15:33;;;;;;;7.90;3.90;;;29.90;20.80;;;;;;11235399;26;20296;-72
2024/04/08 17:20:38;;;;;;;8.63;3.50;;;29.90;21.10;;;;;;11232229;26;20301;-72
2024/04/08 17:25:42;;;;;;;7.07;3.40;;;29.80;21.00;;;;;;11231202;26;20288;-72
2024/04/08 17:30:57;;;;;;;11.80;4.13;;;29.60;20.90;;;;;;11224555;26;20292;-72
2024/04/08 17:36:03;;;;;;;11.17;3.13;;;29.50;21.10;;;;;;11229881;26;20291;-72
2024/04/08 17:41:12;;;;;;;7.73;3.50;;;29.30;21.20;;;;;;11230260;26;20265;-72
2024/04/08 17:46:20;;;;;;;8.70;3.13;;;29.30;21.60;;;;;;11242387;26;20265;-72
2024/04/08 17:51:25;;;;;;;7.77;2.77;;;29.10;21.90;;;;;;11233282;26;20257;-72
2024/04/08 17:56:30;;;;;;;9.53;3.03;;;28.90;21.60;;;;;;11237594;26;20743;-72
2024/04/08 18:01:40;;;;;;;12.47;3.13;;;28.70;21.70;;;;;;11238628;26;20261;-72
2024/04/08 18:06:45;;;;;;;12.77;3.23;;;28.60;22.00;;;;;;11250652;26;20716;-72
2024/04/08 18:11:50;;;;;;;9.83;3.00;;;28.40;22.10;;;;;;11241439;26;20297;-72
2024/04/08 18:17:06;;;;;;;13.33;3.50;;;28.30;22.30;;;;;;11233479;26;20412;-71
2024/04/08 18:22:11;;;;;;;9.40;3.03;;;28.10;23.00;;;;;;11255334;26;20818;-71
2024/04/08 18:27:16;;;;;;;11.23;3.20;;;28.00;22.60;;;;;;11242484;26;20265;-72
2024/04/08 18:32:24;;;;;;;8.50;3.37;;;27.80;22.90;;;;;;11249049;26;20291;-72
2024/04/08 18:37:29;;;;;;;11.83;3.50;;;27.60;23.20;;;;;;11267518;26;20265;-71
2024/04/08 18:42:34;;;;;;;9.57;4.00;;;27.40;23.00;;;;;;11238187;26;20311;-72
2024/04/08 18:47:42;;;;;;;15.83;5.03;;;27.20;23.00;;;;;;11236746;26;20593;-71
2024/04/08 18:52:48;;;;;;;11.10;4.40;;;27.00;23.70;;;;;;11230594;26;20329;-72
2024/04/08 18:57:53;;;;;;;9.70;4.10;;;26.70;23.40;;;;;;11240132;26;20931;-71
2024/04/08 19:03:00;;;;;;;8.57;4.27;;;26.60;23.60;;;;;;11231728;26;20257;-72
2024/04/08 19:08:06;;;;;;;10.13;4.03;;;26.40;24.00;;;;;;11226161;26;20250;-71
2024/04/08 19:13:11;;;;;;;14.10;5.10;;;26.20;23.80;;;;;;11234481;26;20312;-71
2024/04/08 19:18:19;;;;;;;13.43;5.30;;;26.10;24.00;;;;;;11243854;26;20742;-71
2024/04/08 19:23:24;;;;;;;9.93;4.10;;;25.80;24.40;;;;;;11235236;26;20260;-71
2024/04/08 19:28:29;;;;;;;10.70;4.07;;;25.60;24.40;;;;;;11239688;26;20257;-71
2024/04/08 19:33:37;;;;;;;9.80;3.87;;;25.40;24.60;;;;;;11251159;26;20262;-71
2024/04/08 19:38:42;;;;;;;7.40;3.60;;;25.20;25.30;;;;;;11253908;26;20311;-72
2024/04/08 19:43:47;;;;;;;10.90;3.57;;;25.10;25.10;;;;;;11236795;26;20299;-71
2024/04/08 19:48:55;;;;;;;9.10;3.50;;;25.00;25.10;;;;;;11231467;26;20257;-71
2024/04/08 19:54:00;;;;;;;8.30;3.50;;;25.00;25.70;;;;;;11241983;26;20261;-72
2024/04/08 19:59:06;;;;;;;9.37;4.03;;;24.90;25.30;;;;;;11246945;26;20293;-71
2024/04/08 20:04:17;;;;;;;8.90;3.53;;;24.90;25.50;;;;;;11244731;26;20296;-71
2024/04/08 20:09:22;;;;;;;8.43;3.67;;;24.90;26.00;;;;;;11250562;26;20291;-71
2024/04/08 20:14:27;;;;;;;6.20;3.57;;;24.80;25.60;;;;;;11260977;26;21752;-71
2024/04/08 20:19:35;;;;;;;8.33;3.50;;;24.70;25.50;;;;;;11255016;26;20256;-71
2024/04/08 20:24:41;;;;;;;6.13;3.63;;;24.70;26.10;;;;;;11250703;26;20261;-72
2024/04/08 20:29:46;;;;;;;10.53;3.57;;;24.60;25.70;;;;;;11241594;26;20390;-72
2024/04/08 20:34:53;;;;;;;7.90;3.53;;;24.60;25.70;;;;;;11250670;26;20253;-71
2024/04/08 20:39:58;;;;;;;8.80;3.77;;;24.50;26.10;;;;;;11244457;26;20253;-71
2024/04/08 20:45:03;;;;;;;5.87;3.20;;;24.50;25.80;;;;;;11253301;26;20257;-70
2024/04/08 20:50:11;;;;;;;8.43;3.30;;;24.40;25.80;;;;;;11241578;26;20262;-71
2024/04/08 20:55:18;;;;;;;10.00;3.70;;;24.40;26.40;;;;;;11252244;26;20262;-71
2024/04/08 21:00:23;;;;;;;10.23;3.53;;;24.30;26.00;;;;;;11240223;26;20362;-71
2024/04/08 21:05:31;;;;;;;8.57;4.03;;;24.20;26.00;;;;;;11255387;26;20292;-71
2024/04/08 21:10:36;;;;;;;9.77;3.87;;;24.10;26.40;;;;;;11245102;26;20356;-71
2024/04/08 21:15:41;;;;;;;7.13;3.77;;;24.10;26.10;;;;;;11262331;26;20261;-71
2024/04/08 21:20:48;;;;;;;8.90;4.13;;;24.00;25.90;;;;;;11248518;26;20264;-71
2024/04/08 21:25:55;;;;;;;9.93;3.73;;;23.90;26.10;;;;;;11249621;26;20252;-71
2024/04/08 21:31:00;;;;;;;8.23;3.30;;;23.80;25.80;;;;;;11245553;26;20269;-72
2024/04/08 21:36:09;;;;;;;11.33;4.00;;;23.70;25.90;;;;;;11253250;26;20729;-71
2024/04/08 21:41:14;;;;;;;12.50;3.53;;;23.60;26.30;;;;;;11265108;26;20300;-71
2024/04/08 21:46:19;;;;;;;11.47;3.70;;;23.50;25.60;;;;;;11252716;26;20316;-71
2024/04/08 21:51:27;;;;;;;9.40;3.33;;;23.30;25.80;;;;;;11255451;26;20639;-71
2024/04/08 21:56:33;;;;;;;10.50;3.33;;;23.20;26.30;;;;;;11260159;26;20257;-71
2024/04/08 22:01:38;;;;;;;10.30;3.10;;;23.10;26.20;;;;;;11254636;26;20255;-72
2024/04/08 22:06:45;;;;;;;10.20;3.33;;;23.00;26.30;;;;;;11256589;26;20269;-72
2024/04/08 22:11:50;;;;;;;11.70;3.57;;;22.90;26.90;;;;;;11255763;26;20604;-72
2024/04/08 22:16:55;;;;;;;6.73;3.13;;;22.90;26.30;;;;;;11258615;26;20304;-72
2024/04/08 22:22:03;;;;;;;9.47;3.33;;;22.90;26.30;;;;;;11270959;26;20266;-72
2024/04/08 22:27:08;;;;;;;10.60;3.43;;;22.80;26.20;;;;;;11261297;26;20292;-71
2024/04/08 22:32:13;;;;;;;9.57;2.90;;;22.70;25.70;;;;;;11253714;26;20311;-71
2024/04/08 22:37:21;;;;;;;9.10;3.37;;;22.70;26.10;;;;;;11257201;26;20262;-71
2024/04/08 22:42:26;;;;;;;12.87;3.70;;;22.60;26.20;;;;;;11258690;26;20261;-72
2024/04/08 22:47:31;;;;;;;9.53;3.40;;;22.60;25.90;;;;;;11253927;26;20320;-71
2024/04/08 22:52:39;;;;;;;8.50;3.43;;;22.60;25.90;;;;;;11261813;26;20257;-71
2024/04/08 22:57:44;;;;;;;8.63;3.40;;;22.60;26.20;;;;;;11262326;26;20604;-71
2024/04/08 23:02:49;;;;;;;11.83;3.00;;;22.60;26.00;;;;;;11263066;26;20262;-71
2024/04/08 23:07:57;;;;;;;8.50;3.63;;;22.60;26.30;;;;;;11247352;26;20319;-71
2024/04/08 23:13:02;;;;;;;7.63;3.37;;;22.60;26.70;;;;;;11250844;26;20261;-71
2024/04/08 23:18:07;;;;;;;7.83;3.10;;;22.50;26.30;;;;;;11253296;26;20301;-70
2024/04/08 23:23:15;;;;;;;9.63;2.90;;;22.50;26.30;;;;;;11260134;26;20740;-71
2024/04/08 23:28:20;;;;;;;9.07;2.83;;;22.40;26.80;;;;;;11253874;26;20862;-71
2024/04/08 23:33:25;;;;;;;6.27;3.00;;;22.40;26.90;;;;;;11274957;26;20269;-71
2024/04/08 23:38:33;;;;;;;6.77;3.10;;;22.40;26.60;;;;;;11259150;26;20392;-71
2024/04/08 23:43:39;;;;;;;9.87;3.20;;;22.30;26.90;;;;;;11258261;26;20291;-71
2024/04/08 23:48:44;;;;;;;12.33;3.27;;;22.10;26.70;;;;;;11263962;26;20891;-71
2024/04/08 23:53:56;;;;;;;11.80;3.80;;;22.00;26.70;;;;;;11259845;26;20359;-71
2024/04/08 23:59:01;;;;;;;11.77;3.23;;;21.90;26.80;;;;;;11254123;26;20366;-71
